createdAt,value
2022-09-23T00:05:08.038Z,10.55
2022-09-23T00:10:33.613Z,10.51
2022-09-23T00:15:55.329Z,10.43
2022-09-23T00:21:18.860Z,10.44
2022-09-23T00:26:40.550Z,10.37
2022-09-23T00:32:03.155Z,10.29
2022-09-23T00:37:25.131Z,10.28
2022-09-23T00:42:49.473Z,10.30
2022-09-23T00:48:16.997Z,10.10
2022-09-23T00:53:39.673Z,10.21
2022-09-23T00:59:02.454Z,10.19
2022-09-23T01:04:26.763Z,10.04
2022-09-23T01:09:49.175Z,10.13
2022-09-23T01:15:19.532Z,10.14
2022-09-23T01:20:56.186Z,10.17
2022-09-23T01:26:17.955Z,10.08
2022-09-23T01:31:58.789Z,10.01
2022-09-23T01:37:35.312Z,10.03
2022-09-23T01:43:11.369Z,10.00
2022-09-23T01:48:40.202Z,9.96
2022-09-23T01:54:07.853Z,9.87
2022-09-23T01:59:43.127Z,9.69
2022-09-23T02:05:18.339Z,9.78
2022-09-23T02:10:47.259Z,9.55
2022-09-23T02:16:15.001Z,9.65
2022-09-23T02:21:47.057Z,9.66
2022-09-23T02:27:32.014Z,9.56
2022-09-23T02:33:22.952Z,9.43
2022-09-23T02:38:51.224Z,9.39
2022-09-23T02:44:16.608Z,9.32
2022-09-23T02:49:38.415Z,9.43
2022-09-23T02:55:00.855Z,9.22
2022-09-23T03:00:23.809Z,9.53
2022-09-23T03:05:56.388Z,9.37
2022-09-23T03:11:18.709Z,9.61
2022-09-23T03:17:03.585Z,9.22
2022-09-23T03:22:32.269Z,9.39
2022-09-23T03:27:57.901Z,9.21
2022-09-23T03:33:28.504Z,9.38
2022-09-23T03:38:54.654Z,9.21
2022-09-23T03:44:18.159Z,9.33
2022-09-23T03:49:42.492Z,9.05
2022-09-23T03:55:05.012Z,8.97
2022-09-23T04:00:27.698Z,8.84
2022-09-23T04:05:49.412Z,8.92
2022-09-23T04:11:11.252Z,8.88
2022-09-23T04:16:33.062Z,8.94
2022-09-23T04:21:54.819Z,9.02
2022-09-23T04:27:16.809Z,8.98
2022-09-23T04:32:38.584Z,9.00
2022-09-23T04:38:00.278Z,8.91
2022-09-23T04:43:23.321Z,8.63
2022-09-23T04:48:45.246Z,8.61
2022-09-23T04:54:07.029Z,8.56
2022-09-23T04:59:29.281Z,8.62
2022-09-23T05:04:51.038Z,8.84
2022-09-23T05:10:12.746Z,8.74
2022-09-23T05:15:34.553Z,8.82
2022-09-23T05:20:56.411Z,8.92
2022-09-23T05:26:18.155Z,8.82
2022-09-23T05:31:39.931Z,8.81
2022-09-23T05:37:01.783Z,8.77
2022-09-23T05:42:24.072Z,8.78
2022-09-23T05:47:45.795Z,8.80
2022-09-23T05:53:07.644Z,8.83
2022-09-23T05:58:30.038Z,8.75
2022-09-23T06:03:53.339Z,8.67
2022-09-23T06:09:15.263Z,8.59
2022-09-23T06:14:37.044Z,8.72
2022-09-23T06:19:58.966Z,8.75
2022-09-23T06:25:23.014Z,8.70
2022-09-23T06:30:44.799Z,8.80
2022-09-23T06:36:08.081Z,9.06
2022-09-23T06:41:29.962Z,9.25
2022-09-23T06:46:51.861Z,9.26
2022-09-23T06:52:13.792Z,9.42
2022-09-23T06:57:35.921Z,9.37
2022-09-23T07:02:57.735Z,9.59
2022-09-23T07:08:19.593Z,9.74
2022-09-23T07:13:42.691Z,10.05
2022-09-23T07:19:04.519Z,10.20
2022-09-23T07:24:26.217Z,10.44
2022-09-23T07:29:49.339Z,10.49
2022-09-23T07:35:11.693Z,10.74
2022-09-23T07:40:34.455Z,10.75
2022-09-23T07:45:56.266Z,10.82
2022-09-23T07:51:21.221Z,11.05
2022-09-23T07:56:43.384Z,11.22
2022-09-23T08:02:05.124Z,11.35
2022-09-23T08:07:26.835Z,11.41
2022-09-23T08:12:48.901Z,11.56
2022-09-23T08:18:10.863Z,11.71
2022-09-23T08:23:33.896Z,11.83
2022-09-23T08:28:56.436Z,11.87
2022-09-23T08:34:20.052Z,11.92
2022-09-23T08:39:41.928Z,12.06
2022-09-23T08:45:07.582Z,12.14
2022-09-23T08:50:37.346Z,12.27
2022-09-23T08:56:03.161Z,12.34
2022-09-23T09:01:44.591Z,12.42
2022-09-23T09:07:35.743Z,12.50
2022-09-23T09:13:07.446Z,12.60
2022-09-23T09:18:31.996Z,12.72
2022-09-23T09:24:00.093Z,12.78
2022-09-23T09:29:35.485Z,12.88
2022-09-23T09:35:03.816Z,12.94
2022-09-23T09:40:25.607Z,13.05
2022-09-23T09:46:10.607Z,13.12
2022-09-23T09:51:32.525Z,13.22
2022-09-23T09:56:54.713Z,13.30
2022-09-23T10:02:26.734Z,13.40
2022-09-23T10:07:48.525Z,13.50
2022-09-23T10:13:19.508Z,13.59
2022-09-23T10:18:47.422Z,13.66
2022-09-23T10:24:22.468Z,13.80
2022-09-23T10:29:50.981Z,13.94
2022-09-23T10:35:22.526Z,14.01
2022-09-23T10:41:03.106Z,14.05
2022-09-23T10:46:41.435Z,14.16
2022-09-23T10:53:08.109Z,14.28
2022-09-23T10:58:42.877Z,14.52
2022-09-23T11:04:52.547Z,14.65
2022-09-23T11:10:44.896Z,14.79
2022-09-23T11:16:16.638Z,14.92
2022-09-23T11:22:05.660Z,15.00
2022-09-23T11:27:35.079Z,15.02
2022-09-23T11:33:17.769Z,15.07
2022-09-23T11:38:44.780Z,15.17
2022-09-23T11:44:10.539Z,15.37
2022-09-23T11:49:40.108Z,15.42
2022-09-23T11:55:22.716Z,15.57
2022-09-23T12:00:59.004Z,15.62
2022-09-23T12:06:39.933Z,15.78
2022-09-23T12:12:14.096Z,15.96
2022-09-23T12:18:03.930Z,16.13
2022-09-23T12:23:37.855Z,16.19
2022-09-23T12:29:05.545Z,16.30
2022-09-23T12:34:38.957Z,16.40
2022-09-23T12:40:07.378Z,16.48
2022-09-23T12:45:37.277Z,16.54
2022-09-23T12:51:06.628Z,16.59
2022-09-23T12:56:31.150Z,16.59
2022-09-23T13:01:54.208Z,16.61
2022-09-23T13:07:27.482Z,16.53
2022-09-23T13:12:49.943Z,16.52
2022-09-23T13:18:20.869Z,16.59
2022-09-23T13:24:19.496Z,16.65
2022-09-23T13:30:06.047Z,16.68
2022-09-23T13:35:35.978Z,16.62
2022-09-23T13:41:25.165Z,16.65
2022-09-23T13:46:58.143Z,16.71
2022-09-23T13:52:27.881Z,16.62
2022-09-23T13:57:57.369Z,16.71
2022-09-23T14:03:36.110Z,16.75
2022-09-23T14:09:01.238Z,16.80
2022-09-23T14:14:23.777Z,16.82
2022-09-23T14:19:46.638Z,16.84
2022-09-23T14:25:18.311Z,16.85
2022-09-23T14:30:40.275Z,16.85
2022-09-23T14:36:08.949Z,16.80
2022-09-23T14:41:37.075Z,16.80
2022-09-23T14:46:59.682Z,16.85
2022-09-23T14:52:21.444Z,16.85
2022-09-23T14:57:44.744Z,16.83
2022-09-23T15:03:16.392Z,16.78
2022-09-23T15:08:38.564Z,16.82
2022-09-23T15:14:19.701Z,16.76
2022-09-23T15:19:43.379Z,16.74
2022-09-23T15:25:15.806Z,16.71
2022-09-23T15:30:39.001Z,16.70
2022-09-23T15:36:00.953Z,16.72
2022-09-23T15:41:24.147Z,16.63
2022-09-23T15:46:48.164Z,16.57
2022-09-23T15:52:10.563Z,16.52
2022-09-23T15:57:32.302Z,16.60
2022-09-23T16:02:54.319Z,16.58
2022-09-23T16:08:16.303Z,16.51
2022-09-23T16:13:38.024Z,16.41
2022-09-23T16:18:59.879Z,16.37
2022-09-23T16:24:27.353Z,16.36
2022-09-23T16:29:49.835Z,16.37
2022-09-23T16:35:11.609Z,16.36
2022-09-23T16:40:33.943Z,16.30
2022-09-23T16:45:55.837Z,16.29
2022-09-23T16:51:28.169Z,16.31
2022-09-23T16:56:50.433Z,16.29
2022-09-23T17:02:44.461Z,16.26
2022-09-23T17:08:07.758Z,16.14
2022-09-23T17:13:30.025Z,16.03
2022-09-23T17:19:02.522Z,15.92
2022-09-23T17:24:24.295Z,15.86
2022-09-23T17:29:46.269Z,15.78
2022-09-23T17:35:11.739Z,15.72
2022-09-23T17:40:35.818Z,15.62
2022-09-23T17:46:08.631Z,15.56
2022-09-23T17:51:30.939Z,15.44
2022-09-23T17:56:52.686Z,15.41
2022-09-23T18:02:15.837Z,15.31
2022-09-23T18:07:37.751Z,15.24
2022-09-23T18:12:59.462Z,15.19
2022-09-23T18:18:21.147Z,15.13
2022-09-23T18:23:43.002Z,15.01
2022-09-23T18:29:05.784Z,14.91
2022-09-23T18:34:28.556Z,14.83
2022-09-23T18:39:50.477Z,14.72
2022-09-23T18:45:12.503Z,14.66
2022-09-23T18:50:40.331Z,14.61
2022-09-23T18:56:10.496Z,14.58
2022-09-23T19:01:32.808Z,14.55
2022-09-23T19:06:56.530Z,14.53
2022-09-23T19:12:18.465Z,14.51
2022-09-23T19:17:40.363Z,14.41
2022-09-23T19:23:02.111Z,14.39
2022-09-23T19:28:25.194Z,14.21
2022-09-23T19:33:58.405Z,14.08
2022-09-23T19:39:22.644Z,14.06
2022-09-23T19:44:44.394Z,13.99
2022-09-23T19:50:07.298Z,14.06
2022-09-23T19:55:29.413Z,14.07
2022-09-23T20:00:51.256Z,14.13
2022-09-23T20:06:13.550Z,14.12
2022-09-23T20:11:35.890Z,14.13
2022-09-23T20:16:58.269Z,14.04
2022-09-23T20:22:29.673Z,14.03
2022-09-23T20:27:54.736Z,14.01
2022-09-23T20:33:16.491Z,13.98
2022-09-23T20:38:38.626Z,13.94
2022-09-23T20:44:00.578Z,13.93
2022-09-23T20:49:22.618Z,13.88
2022-09-23T20:54:44.416Z,13.79
2022-09-23T21:00:07.835Z,13.74
2022-09-23T21:05:30.162Z,13.77
2022-09-23T21:10:58.861Z,13.82
2022-09-23T21:16:25.645Z,13.85
2022-09-23T21:21:47.519Z,13.81
2022-09-23T21:27:09.219Z,13.79
2022-09-23T21:32:31.223Z,13.74
2022-09-23T21:37:53.009Z,13.62
2022-09-23T21:43:16.484Z,13.44
2022-09-23T21:48:43.615Z,13.35
2022-09-23T21:54:07.173Z,13.14
2022-09-23T21:59:28.987Z,13.22
2022-09-23T22:04:50.687Z,13.25
2022-09-23T22:10:12.548Z,13.09
2022-09-23T22:15:37.462Z,13.08
2022-09-23T22:20:59.288Z,13.23
2022-09-23T22:26:21.196Z,13.23
2022-09-23T22:32:01.625Z,13.26
2022-09-23T22:37:30.308Z,13.19
2022-09-23T22:42:52.579Z,13.07
2022-09-23T22:48:19.155Z,13.00
2022-09-23T22:53:40.884Z,13.05
2022-09-23T22:59:05.491Z,13.19
2022-09-23T23:04:27.551Z,13.24
2022-09-23T23:09:50.353Z,13.23
2022-09-23T23:15:12.624Z,13.12
2022-09-23T23:20:34.546Z,13.18
2022-09-23T23:25:56.267Z,13.27
2022-09-23T23:31:20.938Z,13.25
2022-09-23T23:36:43.647Z,13.02
2022-09-23T23:42:05.649Z,13.11
2022-09-23T23:47:27.458Z,13.05
2022-09-23T23:52:49.157Z,12.92
2022-09-23T23:58:10.933Z,12.93
